createdAt,value
2022-08-21T02:06:27.717Z,47.33
2022-08-21T02:08:53.658Z,46.83
2022-08-21T02:11:19.615Z,47.30
2022-08-21T02:13:45.623Z,47.25
2022-08-21T02:16:11.632Z,47.73
2022-08-21T02:18:39.423Z,47.78
2022-08-21T02:21:05.481Z,48.08
2022-08-21T02:23:32.152Z,48.76
2022-08-21T02:25:58.124Z,47.63
2022-08-21T02:28:24.121Z,47.57
2022-08-21T02:30:52.022Z,48.19
2022-08-21T02:33:18.024Z,47.82
2022-08-21T02:35:44.001Z,48.22
2022-08-21T02:38:13.150Z,48.25
2022-08-21T02:40:40.410Z,48.64
2022-08-21T02:43:15.010Z,48.43
2022-08-21T02:45:40.972Z,48.07
2022-08-21T02:48:06.910Z,48.76
2022-08-21T02:50:33.760Z,48.71
2022-08-21T02:53:00.029Z,48.96
2022-08-21T02:55:26.158Z,48.42
2022-08-21T02:57:53.121Z,48.12
2022-08-21T03:00:19.102Z,47.89
2022-08-21T03:02:45.047Z,48.29
2022-08-21T03:05:11.917Z,48.36
2022-08-21T03:07:37.894Z,48.45
2022-08-21T03:10:03.834Z,49.03
2022-08-21T03:12:30.217Z,48.61
2022-08-21T03:14:57.001Z,46.62
2022-08-21T03:17:29.839Z,46.94
2022-08-21T03:19:56.247Z,47.38
2022-08-21T03:22:22.196Z,47.34
2022-08-21T03:24:48.137Z,47.74
2022-08-21T03:27:15.251Z,46.40
2022-08-21T03:29:41.190Z,47.03
2022-08-21T03:32:07.151Z,46.85
2022-08-21T03:34:33.986Z,47.61
2022-08-21T03:36:59.998Z,47.84
2022-08-21T03:39:25.958Z,47.66
2022-08-21T03:41:51.930Z,48.15
2022-08-21T03:44:18.572Z,47.82
2022-08-21T03:46:44.510Z,47.73
2022-08-21T03:49:10.500Z,47.71
2022-08-21T03:51:37.139Z,48.15
2022-08-21T03:54:03.538Z,48.14
2022-08-21T03:56:29.591Z,48.40
2022-08-21T03:58:55.553Z,47.21
2022-08-21T04:01:22.304Z,47.92
2022-08-21T04:03:50.589Z,48.47
2022-08-21T04:06:16.941Z,48.50
2022-08-21T04:08:43.548Z,48.60
2022-08-21T04:11:09.614Z,48.78
2022-08-21T04:13:35.561Z,49.46
2022-08-21T04:16:10.407Z,48.63
2022-08-21T04:18:37.084Z,48.87
2022-08-21T04:21:03.100Z,50.08
2022-08-21T04:23:30.904Z,49.86
2022-08-21T04:25:57.525Z,49.73
2022-08-21T04:28:23.615Z,49.80
2022-08-21T04:30:55.143Z,49.46
2022-08-21T04:33:21.077Z,49.84
2022-08-21T04:35:47.781Z,49.94
2022-08-21T04:38:13.832Z,49.21
2022-08-21T04:40:39.789Z,50.19
2022-08-21T04:43:06.468Z,50.57
2022-08-21T04:45:32.801Z,50.47
2022-08-21T04:47:59.143Z,50.46
2022-08-21T04:50:25.392Z,50.05
2022-08-21T04:52:53.070Z,50.18
2022-08-21T04:58:01.888Z,50.35
2022-08-21T05:00:28.034Z,50.17
2022-08-21T07:01:29.824Z,49.10
2022-08-21T07:03:55.865Z,48.32
2022-08-21T07:06:22.543Z,49.84
2022-08-21T07:08:48.552Z,50.30
2022-08-21T07:11:15.245Z,50.97
2022-08-21T07:13:41.933Z,49.96
2022-08-21T07:16:07.992Z,50.76
2022-08-21T07:18:33.942Z,50.72
2022-08-21T07:20:59.935Z,50.53
2022-08-21T07:23:25.940Z,49.32
2022-08-21T07:25:52.711Z,49.58
2022-08-21T07:28:18.705Z,48.81
2022-08-21T07:30:44.761Z,49.61
2022-08-21T07:33:10.722Z,49.43
2022-08-21T07:35:37.406Z,49.42
2022-08-21T07:38:03.444Z,49.42
2022-08-21T07:40:29.424Z,49.23
2022-08-21T07:42:55.553Z,49.41
2022-08-21T07:45:21.591Z,49.31
2022-08-21T07:47:47.530Z,49.42
2022-08-21T07:50:14.163Z,49.95
2022-08-21T07:52:40.174Z,49.44
2022-08-21T07:55:06.883Z,50.30
2022-08-21T07:57:32.946Z,51.09
2022-08-21T07:59:59.000Z,50.08
2022-08-21T08:02:25.013Z,49.43
2022-08-21T08:04:51.283Z,49.81
2022-08-21T08:07:17.331Z,51.17
2022-08-21T08:09:43.985Z,51.32
2022-08-21T08:12:09.995Z,50.50
2022-08-21T08:14:36.795Z,51.88
2022-08-21T08:17:02.778Z,51.63
2022-08-21T08:19:28.745Z,51.24
2022-08-21T08:21:54.775Z,50.89
2022-08-21T08:24:21.396Z,48.39
2022-08-21T08:26:53.466Z,48.22
2022-08-21T08:29:19.987Z,48.68
2022-08-21T08:31:45.957Z,49.98
2022-08-21T08:34:11.893Z,48.78
2022-08-21T08:36:50.573Z,47.77
2022-08-21T08:39:26.302Z,49.80
2022-08-21T08:41:55.093Z,48.65
2022-08-21T08:44:24.749Z,48.46
2022-08-21T08:46:57.494Z,46.94
2022-08-21T08:49:24.317Z,46.20
2022-08-21T08:51:53.011Z,48.55
2022-08-21T08:54:19.384Z,47.86
2022-08-21T08:56:45.326Z,48.81
2022-08-21T08:59:11.951Z,49.76
2022-08-21T09:01:39.247Z,50.17
2022-08-21T09:04:05.332Z,47.60
2022-08-21T09:06:31.279Z,48.60
2022-08-21T09:08:57.312Z,48.88
2022-08-21T09:11:23.300Z,49.88
2022-08-21T09:13:49.677Z,48.96
2022-08-21T09:16:15.723Z,48.63
2022-08-21T09:18:41.744Z,47.94
2022-08-21T09:21:08.400Z,46.86
2022-08-21T09:23:34.390Z,47.34
2022-08-21T09:26:00.346Z,46.39
2022-08-21T09:28:27.012Z,46.61
2022-08-21T09:30:53.015Z,45.38
2022-08-21T09:33:18.987Z,48.41
2022-08-21T09:35:44.972Z,46.01
2022-08-21T09:38:10.964Z,46.71
2022-08-21T09:40:38.608Z,46.13
2022-08-21T09:43:04.934Z,47.03
2022-08-21T09:45:33.899Z,47.92
2022-08-21T09:48:01.686Z,47.64
2022-08-21T09:50:28.198Z,47.01
2022-08-21T09:52:56.601Z,45.88
2022-08-21T11:48:40.594Z,41.32
2022-08-21T11:51:06.804Z,41.00
2022-08-21T11:53:32.750Z,40.12
2022-08-21T11:55:59.668Z,39.72
2022-08-21T11:58:25.664Z,40.32
2022-08-21T12:00:51.645Z,40.00
2022-08-21T12:03:18.399Z,39.77
2022-08-21T12:05:44.945Z,40.15
2022-08-21T12:08:10.935Z,39.87
2022-08-21T12:10:36.941Z,40.02
2022-08-21T12:13:03.614Z,39.77
2022-08-21T12:15:29.561Z,40.40
2022-08-21T12:17:55.583Z,39.78
2022-08-21T12:20:21.564Z,39.23
2022-08-21T12:22:47.549Z,39.66
2022-08-21T12:25:21.485Z,40.43
2022-08-21T12:27:48.520Z,40.06
2022-08-21T12:30:14.470Z,40.14
2022-08-21T12:32:40.467Z,41.08
2022-08-21T12:35:07.239Z,43.10
2022-08-21T12:37:33.210Z,41.51
2022-08-21T12:39:59.297Z,42.46
2022-08-21T12:42:25.356Z,40.65
2022-08-21T12:44:52.034Z,41.38
2022-08-21T12:47:18.069Z,41.25
2022-08-21T12:49:44.072Z,41.50
2022-08-21T12:52:10.051Z,41.50
2022-08-21T12:54:36.194Z,41.42
2022-08-21T12:57:02.999Z,42.21
2022-08-21T12:59:28.975Z,41.84
2022-08-21T13:01:55.004Z,41.12
2022-08-21T13:04:21.208Z,41.13
2022-08-21T13:06:47.976Z,40.87
2022-08-21T13:09:13.974Z,41.02
2022-08-21T13:11:40.971Z,40.82
2022-08-21T13:14:07.748Z,40.16
2022-08-21T13:16:36.627Z,41.19
2022-08-21T13:19:03.356Z,40.94
2022-08-21T13:21:29.336Z,42.06
2022-08-21T13:23:55.337Z,42.06
2022-08-21T13:26:21.276Z,41.07
2022-08-21T13:28:47.223Z,41.05
2022-08-21T13:31:14.151Z,40.11
2022-08-21T13:33:40.385Z,41.24
2022-08-21T13:36:06.332Z,41.45
2022-08-21T13:38:32.319Z,41.72
2022-08-21T13:40:59.003Z,42.06
2022-08-21T13:43:24.996Z,41.28
2022-08-21T13:45:51.035Z,42.39
2022-08-21T13:48:17.761Z,42.70
2022-08-21T13:50:44.375Z,42.53
2022-08-21T13:53:10.365Z,41.42
2022-08-21T13:55:36.355Z,42.76
2022-08-21T13:58:02.297Z,43.31
2022-08-21T14:00:28.348Z,42.60
2022-08-21T14:02:54.316Z,42.14
2022-08-21T14:05:20.306Z,42.41
2022-08-21T14:07:46.373Z,42.09
2022-08-21T14:10:12.394Z,41.29
2022-08-21T14:12:38.366Z,40.54
2022-08-21T14:15:04.350Z,40.65
2022-08-21T14:17:33.340Z,41.83
2022-08-21T14:20:00.143Z,42.68
2022-08-21T14:22:26.534Z,41.56
2022-08-21T14:24:55.114Z,41.21
2022-08-21T14:27:21.559Z,42.07
2022-08-21T14:29:47.826Z,41.84
2022-08-21T14:32:21.832Z,41.60
2022-08-21T14:34:51.172Z,40.87
2022-08-21T14:37:17.408Z,40.79
2022-08-21T14:39:45.324Z,41.17
2022-08-21T16:25:54.878Z,38.52
2022-08-21T16:28:20.822Z,38.70
2022-08-21T16:30:47.909Z,39.47
2022-08-21T16:33:13.910Z,39.69
2022-08-21T16:35:39.852Z,38.79
2022-08-21T16:38:05.909Z,38.01
2022-08-21T16:40:31.920Z,38.69
2022-08-21T16:42:58.058Z,39.31
2022-08-21T16:45:25.734Z,38.71
2022-08-21T16:47:53.077Z,38.93
2022-08-21T16:50:19.033Z,38.84
2022-08-21T16:52:45.015Z,39.17
2022-08-21T16:55:11.084Z,38.67
2022-08-21T16:57:37.044Z,39.65
2022-08-21T17:00:03.721Z,38.36
2022-08-21T17:02:29.781Z,39.32
2022-08-21T17:04:55.756Z,38.90
2022-08-21T17:07:22.424Z,39.09
2022-08-21T17:09:48.647Z,38.62
2022-08-21T17:12:14.653Z,39.44
2022-08-21T17:14:40.815Z,40.63
2022-08-21T17:17:06.834Z,39.56
2022-08-21T17:19:32.797Z,40.59
2022-08-21T17:21:59.543Z,39.43
2022-08-21T17:24:25.563Z,38.99
2022-08-21T17:26:51.505Z,39.44
2022-08-21T17:29:18.231Z,41.26
2022-08-21T17:31:44.286Z,40.16
2022-08-21T17:34:10.249Z,40.54
2022-08-21T17:36:36.681Z,41.86
2022-08-21T17:39:02.667Z,42.04
2022-08-21T17:41:28.594Z,42.67
2022-08-21T17:43:55.290Z,40.15
2022-08-21T17:46:21.278Z,41.00
2022-08-21T17:48:47.981Z,41.91
2022-08-21T17:51:13.943Z,40.68
2022-08-21T17:53:39.928Z,41.36
2022-08-21T17:56:05.902Z,41.18
2022-08-21T17:58:32.153Z,41.26
2022-08-21T18:00:59.031Z,40.95
2022-08-21T18:03:25.024Z,41.14
2022-08-21T18:05:50.980Z,41.48
2022-08-21T18:08:16.998Z,41.07
2022-08-21T18:10:43.214Z,41.11
2022-08-21T18:13:09.184Z,41.65
2022-08-21T18:15:36.177Z,42.35
2022-08-21T18:18:02.681Z,42.19
2022-08-21T18:20:29.149Z,42.46
2022-08-21T18:22:55.871Z,42.28
2022-08-21T18:25:22.393Z,42.23
2022-08-21T18:27:48.613Z,43.03
2022-08-21T18:30:15.295Z,42.40
2022-08-21T18:32:41.769Z,42.61
2022-08-21T18:35:07.777Z,42.44
2022-08-21T18:37:37.297Z,43.59
2022-08-21T18:40:03.683Z,44.21
2022-08-21T18:42:29.686Z,44.23
2022-08-21T18:44:56.197Z,43.55
2022-08-21T18:47:22.430Z,43.79
2022-08-21T18:49:48.590Z,44.20
2022-08-21T18:52:16.135Z,43.88
2022-08-21T18:54:49.567Z,44.12
2022-08-21T18:57:16.503Z,44.28
2022-08-21T18:59:42.464Z,44.54
2022-08-21T19:02:09.652Z,44.39
2022-08-21T19:07:23.547Z,44.56
2022-08-21T19:10:21.087Z,44.88
2022-08-21T19:12:36.045Z,44.88
2022-08-21T19:15:02.796Z,44.79
2022-08-21T19:17:29.162Z,44.85
2022-08-21T19:19:57.030Z,44.41
2022-08-21T21:19:23.980Z,50.02
2022-08-21T21:21:51.521Z,50.57
2022-08-21T21:24:18.345Z,50.17
2022-08-21T21:26:48.713Z,50.52
2022-08-21T21:29:14.959Z,49.96
2022-08-21T21:31:41.838Z,49.97
2022-08-21T21:34:07.788Z,50.11
2022-08-21T21:36:51.353Z,50.31
2022-08-21T21:39:18.402Z,49.83
2022-08-21T21:41:44.641Z,49.92
2022-08-21T21:44:10.596Z,49.49
2022-08-21T21:46:37.351Z,50.06
2022-08-21T21:49:04.811Z,49.61
2022-08-21T21:51:31.338Z,49.73
2022-08-21T21:54:01.250Z,49.89
2022-08-21T21:56:27.815Z,49.52
2022-08-21T21:58:55.068Z,49.68
2022-08-21T22:01:21.009Z,49.09
2022-08-21T22:03:49.865Z,48.43
2022-08-21T22:06:18.746Z,49.15
2022-08-21T22:08:50.544Z,49.09
2022-08-21T22:14:02.920Z,48.89
2022-08-21T22:16:29.404Z,48.81
2022-08-21T22:18:56.137Z,48.38
2022-08-21T22:21:23.939Z,48.34
2022-08-21T22:23:50.207Z,48.38
2022-08-21T22:26:16.357Z,47.92
2022-08-21T22:28:42.893Z,48.22
2022-08-21T22:31:11.017Z,47.93
2022-08-21T22:33:37.069Z,48.68
2022-08-21T22:36:03.099Z,48.01
2022-08-21T22:38:30.030Z,48.54
2022-08-21T22:40:56.649Z,48.23
2022-08-21T22:43:22.637Z,48.43
2022-08-21T22:45:49.560Z,47.01
2022-08-21T22:48:22.733Z,47.73
2022-08-21T22:50:49.045Z,47.89
2022-08-21T22:53:16.205Z,47.89
2022-08-21T22:55:44.555Z,47.48
2022-08-21T22:58:10.615Z,47.62
2022-08-21T23:00:36.577Z,47.60
2022-08-21T23:03:03.600Z,47.68
2022-08-21T23:05:30.784Z,47.92
2022-08-21T23:07:56.832Z,47.72
2022-08-21T23:10:23.043Z,48.42
2022-08-21T23:15:39.079Z,48.80
2022-08-21T23:18:05.983Z,48.43
2022-08-21T23:20:39.031Z,48.32
2022-08-21T23:23:05.090Z,48.72
2022-08-21T23:25:32.366Z,47.95
2022-08-21T23:27:58.325Z,48.37
2022-08-21T23:30:24.298Z,48.66
2022-08-21T23:32:53.426Z,48.92
2022-08-21T23:35:20.039Z,48.31
2022-08-21T23:37:49.070Z,48.74
2022-08-21T23:40:15.974Z,48.59
2022-08-21T23:42:45.741Z,48.31
2022-08-21T23:47:57.791Z,48.91
2022-08-21T23:50:23.799Z,48.82
2022-08-21T23:52:50.609Z,49.55
2022-08-21T23:55:16.659Z,50.09
2022-08-21T23:57:42.886Z,49.34
